sensor_id;sensor_type;location;lat;lon;timestamp;pressure;altitude;pressure_sealevel;temperature;humidity
63808;BME280;49961;43.970;22.868;2023-05-21T00:00:50;101417.13;;;17.09;100.00
63808;BME280;49961;43.970;22.868;2023-05-21T00:01:50;101413.22;;;17.07;100.00
63808;BME280;49961;43.970;22.868;2023-05-21T00:02:51;101408.38;;;17.07;100.00
63808;BME280;49961;43.970;22.868;2023-05-21T00:03:51;101405.25;;;17.05;100.00
63808;BME280;49961;43.970;22.868;2023-05-21T00:04:52;101409.75;;;17.03;100.00
63808;BME280;49961;43.970;22.868;2023-05-21T00:05:53;101412.56;;;17.03;100.00
63808;BME280;49961;43.970;22.868;2023-05-21T00:06:53;101409.09;;;16.99;100.00
63808;BME280;49961;43.970;22.868;2023-05-21T00:07:54;101405.19;;;16.96;100.00
63808;BME280;49961;43.970;22.868;2023-05-21T00:08:54;101412.03;;;16.95;100.00
63808;BME280;49961;43.970;22.868;2023-05-21T00:09:55;101378.56;;;16.62;100.00
63808;BME280;49961;43.970;22.868;2023-05-21T00:10:55;101387.19;;;16.76;100.00
63808;BME280;49961;43.970;22.868;2023-05-21T00:11:55;101407.16;;;16.87;100.00
63808;BME280;49961;43.970;22.868;2023-05-21T00:12:56;101408.88;;;16.84;100.00
63808;BME280;49961;43.970;22.868;2023-05-21T00:13:56;101411.00;;;16.80;100.00
63808;BME280;49961;43.970;22.868;2023-05-21T00:14:58;101386.94;;;16.62;100.00
63808;BME280;49961;43.970;22.868;2023-05-21T00:15:58;101410.03;;;16.74;100.00
63808;BME280;49961;43.970;22.868;2023-05-21T00:16:59;101391.81;;;16.70;100.00
63808;BME280;49961;43.970;22.868;2023-05-21T00:17:59;101410.84;;;16.75;100.00
63808;BME280;49961;43.970;22.868;2023-05-21T00:19:00;101359.25;;;16.42;100.00
63808;BME280;49961;43.970;22.868;2023-05-21T00:20:02;101284.16;;;15.97;100.00
63808;BME280;49961;43.970;22.868;2023-05-21T00:21:05;101370.22;;;16.49;100.00
63808;BME280;49961;43.970;22.868;2023-05-21T00:22:05;101404.22;;;16.69;100.00
63808;BME280;49961;43.970;22.868;2023-05-21T00:23:06;101401.56;;;16.65;100.00
63808;BME280;49961;43.970;22.868;2023-05-21T00:24:07;101405.91;;;16.66;100.00
63808;BME280;49961;43.970;22.868;2023-05-21T00:25:08;101398.75;;;16.65;100.00
63808;BME280;49961;43.970;22.868;2023-05-21T00:26:08;101402.50;;;16.63;100.00
63808;BME280;49961;43.970;22.868;2023-05-21T00:27:09;101398.13;;;16.62;100.00
63808;BME280;49961;43.970;22.868;2023-05-21T00:28:09;101401.38;;;16.60;100.00
63808;BME280;49961;43.970;22.868;2023-05-21T00:29:10;101383.09;;;16.47;100.00
63808;BME280;49961;43.970;22.868;2023-05-21T00:30:10;101233.88;;;15.51;100.00
63808;BME280;49961;43.970;22.868;2023-05-21T00:31:11;101329.94;;;16.12;100.00
63808;BME280;49961;43.970;22.868;2023-05-21T00:32:11;101391.53;;;16.55;100.00
63808;BME280;49961;43.970;22.868;2023-05-21T00:33:11;101388.44;;;16.53;100.00
63808;BME280;49961;43.970;22.868;2023-05-21T00:34:13;101388.44;;;16.53;100.00
63808;BME280;49961;43.970;22.868;2023-05-21T00:35:13;101386.41;;;16.54;100.00
63808;BME280;49961;43.970;22.868;2023-05-21T00:36:14;101386.88;;;16.52;100.00
63808;BME280;49961;43.970;22.868;2023-05-21T00:37:14;101386.53;;;16.50;100.00
63808;BME280;49961;43.970;22.868;2023-05-21T00:38:15;101390.25;;;16.48;100.00
63808;BME280;49961;43.970;22.868;2023-05-21T00:39:17;101389.59;;;16.43;100.00
63808;BME280;49961;43.970;22.868;2023-05-21T00:40:18;101321.28;;;15.98;100.00
63808;BME280;49961;43.970;22.868;2023-05-21T00:41:18;101380.88;;;16.42;100.00
63808;BME280;49961;43.970;22.868;2023-05-21T00:42:21;101381.09;;;16.34;100.00
63808;BME280;49961;43.970;22.868;2023-05-21T00:43:26;101386.81;;;16.31;100.00
63808;BME280;49961;43.970;22.868;2023-05-21T00:44:26;101388.38;;;16.32;100.00
63808;BME280;49961;43.970;22.868;2023-05-21T00:45:33;101386.50;;;16.29;100.00
63808;BME280;49961;43.970;22.868;2023-05-21T00:46:36;101378.88;;;16.29;100.00
63808;BME280;49961;43.970;22.868;2023-05-21T00:47:36;101382.91;;;16.28;100.00
63808;BME280;49961;43.970;22.868;2023-05-21T00:48:38;101271.66;;;15.55;100.00
63808;BME280;49961;43.970;22.868;2023-05-21T00:49:39;101387.66;;;16.19;100.00
63808;BME280;49961;43.970;22.868;2023-05-21T00:50:40;101193.53;;;14.93;100.00
63808;BME280;49961;43.970;22.868;2023-05-21T00:51:41;101386.53;;;16.16;100.00
63808;BME280;49961;43.970;22.868;2023-05-21T00:52:42;101313.84;;;15.70;100.00
63808;BME280;49961;43.970;22.868;2023-05-21T00:53:43;101359.84;;;16.03;100.00
63808;BME280;49961;43.970;22.868;2023-05-21T00:54:46;101380.59;;;16.14;100.00
63808;BME280;49961;43.970;22.868;2023-05-21T00:55:49;101388.88;;;16.18;100.00
63808;BME280;49961;43.970;22.868;2023-05-21T00:56:50;101378.72;;;16.11;100.00
63808;BME280;49961;43.970;22.868;2023-05-21T00:57:51;101291.66;;;15.54;100.00
63808;BME280;49961;43.970;22.868;2023-05-21T00:58:53;101386.97;;;16.15;100.00
63808;BME280;49961;43.970;22.868;2023-05-21T00:59:55;101380.28;;;16.12;100.00
63808;BME280;49961;43.970;22.868;2023-05-21T01:00:55;101383.19;;;16.09;100.00
63808;BME280;49961;43.970;22.868;2023-05-21T01:01:56;101352.69;;;15.89;100.00
63808;BME280;49961;43.970;22.868;2023-05-21T01:02:56;101380.06;;;16.07;100.00
63808;BME280;49961;43.970;22.868;2023-05-21T01:03:57;101389.22;;;16.07;100.00
63808;BME280;49961;43.970;22.868;2023-05-21T01:05:00;101377.19;;;15.98;100.00
63808;BME280;49961;43.970;22.868;2023-05-21T01:06:04;101374.50;;;15.94;100.00
63808;BME280;49961;43.970;22.868;2023-05-21T01:07:05;101387.00;;;16.02;100.00
63808;BME280;49961;43.970;22.868;2023-05-21T01:08:05;101385.44;;;16.01;100.00
63808;BME280;49961;43.970;22.868;2023-05-21T01:09:06;101285.41;;;15.37;100.00
63808;BME280;49961;43.970;22.868;2023-05-21T01:10:09;101385.09;;;15.99;100.00
63808;BME280;49961;43.970;22.868;2023-05-21T01:11:10;101367.06;;;15.79;100.00
63808;BME280;49961;43.970;22.868;2023-05-21T01:12:11;101385.47;;;15.89;100.00
63808;BME280;49961;43.970;22.868;2023-05-21T01:13:12;101383.91;;;15.88;100.00
63808;BME280;49961;43.970;22.868;2023-05-21T01:14:15;101382.34;;;15.87;100.00
63808;BME280;49961;43.970;22.868;2023-05-21T01:15:17;101270.88;;;15.17;100.00
63808;BME280;49961;43.970;22.868;2023-05-21T01:16:17;101375.63;;;15.84;100.00
63808;BME280;49961;43.970;22.868;2023-05-21T01:17:18;101382.91;;;15.82;100.00
63808;BME280;49961;43.970;22.868;2023-05-21T01:18:20;101386.81;;;15.84;100.00
63808;BME280;49961;43.970;22.868;2023-05-21T01:19:21;101301.03;;;15.22;100.00
63808;BME280;49961;43.970;22.868;2023-05-21T01:20:23;101382.13;;;15.81;100.00
63808;BME280;49961;43.970;22.868;2023-05-21T01:21:24;101373.75;;;15.81;100.00
63808;BME280;49961;43.970;22.868;2023-05-21T01:22:27;101379.78;;;15.80;100.00
63808;BME280;49961;43.970;22.868;2023-05-21T01:23:28;101375.88;;;15.77;100.00
63808;BME280;49961;43.970;22.868;2023-05-21T01:24:29;101375.22;;;15.73;100.00
63808;BME280;49961;43.970;22.868;2023-05-21T01:25:29;101377.25;;;15.73;100.00
63808;BME280;49961;43.970;22.868;2023-05-21T01:26:30;101374.09;;;15.71;100.00
63808;BME280;49961;43.970;22.868;2023-05-21T01:27:32;101253.38;;;14.92;100.00
63808;BME280;49961;43.970;22.868;2023-05-21T01:28:33;101366.41;;;15.62;100.00
63808;BME280;49961;43.970;22.868;2023-05-21T01:29:33;101373.09;;;15.65;100.00
63808;BME280;49961;43.970;22.868;2023-05-21T01:30:34;101377.13;;;15.64;100.00
63808;BME280;49961;43.970;22.868;2023-05-21T01:33:21;101286.88;;;14.92;100.00
63808;BME280;49961;43.970;22.868;2023-05-21T01:34:34;101377.03;;;15.42;100.00
63808;BME280;49961;43.970;22.868;2023-05-21T01:35:41;101363.63;;;15.37;100.00
63808;BME280;49961;43.970;22.868;2023-05-21T01:36:50;101367.66;;;15.36;100.00
63808;BME280;49961;43.970;22.868;2023-05-21T01:39:18;101368.56;;;15.33;100.00
63808;BME280;49961;43.970;22.868;2023-05-21T01:40:22;101365.81;;;15.30;100.00
63808;BME280;49961;43.970;22.868;2023-05-21T01:41:26;101339.13;;;15.04;100.00
63808;BME280;49961;43.970;22.868;2023-05-21T01:42:29;101361.91;;;15.27;100.00
63808;BME280;49961;43.970;22.868;2023-05-21T01:43:33;101365.50;;;15.28;100.00
63808;BME280;49961;43.970;22.868;2023-05-21T01:44:34;101366.28;;;15.28;100.00
63808;BME280;49961;43.970;22.868;2023-05-21T01:45:38;101373.44;;;15.29;100.00
63808;BME280;49961;43.970;22.868;2023-05-21T01:46:39;101324.94;;;14.98;100.00
63808;BME280;49961;43.970;22.868;2023-05-21T01:47:40;101236.16;;;14.43;100.00
63808;BME280;49961;43.970;22.868;2023-05-21T01:48:41;101368.41;;;15.24;100.00
63808;BME280;49961;43.970;22.868;2023-05-21T01:49:42;101383.13;;;15.25;100.00
63808;BME280;49961;43.970;22.868;2023-05-21T01:50:44;101256.91;;;14.42;100.00
63808;BME280;49961;43.970;22.868;2023-05-21T01:51:45;101378.66;;;15.15;100.00
63808;BME280;49961;43.970;22.868;2023-05-21T01:52:51;101196.09;;;13.96;100.00
63808;BME280;49961;43.970;22.868;2023-05-21T01:53:52;101381.13;;;15.13;100.00
63808;BME280;49961;43.970;22.868;2023-05-21T01:54:52;101375.97;;;15.11;100.00
63808;BME280;49961;43.970;22.868;2023-05-21T01:55:53;101370.63;;;15.04;100.00
63808;BME280;49961;43.970;22.868;2023-05-21T01:56:54;101370.25;;;15.02;100.00
63808;BME280;49961;43.970;22.868;2023-05-21T01:57:55;101376.53;;;15.06;100.00
63808;BME280;49961;43.970;22.868;2023-05-21T01:58:56;101375.28;;;15.07;100.00
63808;BME280;49961;43.970;22.868;2023-05-21T01:59:59;101351.38;;;14.81;100.00
63808;BME280;49961;43.970;22.868;2023-05-21T02:01:00;101354.97;;;14.94;100.00
63808;BME280;49961;43.970;22.868;2023-05-21T02:02:01;101292.97;;;14.62;100.00
63808;BME280;49961;43.970;22.868;2023-05-21T02:03:02;101205.28;;;14.09;100.00
63808;BME280;49961;43.970;22.868;2023-05-21T02:04:02;101328.28;;;14.81;100.00
63808;BME280;49961;43.970;22.868;2023-05-21T02:05:03;101379.56;;;15.12;100.00
63808;BME280;49961;43.970;22.868;2023-05-21T02:06:03;101377.09;;;15.14;100.00
63808;BME280;49961;43.970;22.868;2023-05-21T02:07:04;101378.75;;;15.11;100.00
63808;BME280;49961;43.970;22.868;2023-05-21T02:08:05;101380.78;;;15.11;100.00
63808;BME280;49961;43.970;22.868;2023-05-21T02:09:09;101376.41;;;15.10;100.00
63808;BME280;49961;43.970;22.868;2023-05-21T02:10:10;101378.44;;;15.09;100.00
63808;BME280;49961;43.970;22.868;2023-05-21T02:11:10;101371.38;;;15.05;100.00
63808;BME280;49961;43.970;22.868;2023-05-21T02:12:11;101387.16;;;15.11;100.00
63808;BME280;49961;43.970;22.868;2023-05-21T02:13:11;101352.84;;;14.86;100.00
63808;BME280;49961;43.970;22.868;2023-05-21T02:14:11;101384.47;;;15.08;100.00
63808;BME280;49961;43.970;22.868;2023-05-21T02:15:13;101385.25;;;15.08;100.00
63808;BME280;49961;43.970;22.868;2023-05-21T02:16:14;101383.56;;;14.98;100.00
63808;BME280;49961;43.970;22.868;2023-05-21T02:17:15;101261.44;;;14.24;100.00
63808;BME280;49961;43.970;22.868;2023-05-21T02:18:16;101386.03;;;15.09;100.00
63808;BME280;49961;43.970;22.868;2023-05-21T02:19:17;101398.53;;;15.04;100.00
63808;BME280;49961;43.970;22.868;2023-05-21T02:20:18;101387.22;;;14.95;100.00
63808;BME280;49961;43.970;22.868;2023-05-21T02:21:19;101392.38;;;14.97;100.00
63808;BME280;49961;43.970;22.868;2023-05-21T02:22:19;101390.94;;;14.92;100.00
63808;BME280;49961;43.970;22.868;2023-05-21T02:23:20;101320.16;;;14.45;100.00
63808;BME280;49961;43.970;22.868;2023-05-21T02:24:20;101401.03;;;14.86;100.00
63808;BME280;49961;43.970;22.868;2023-05-21T02:25:21;101255.50;;;13.93;100.00
63808;BME280;49961;43.970;22.868;2023-05-21T02:26:22;101375.13;;;14.73;100.00
63808;BME280;49961;43.970;22.868;2023-05-21T02:27:22;101357.78;;;14.53;100.00
63808;BME280;49961;43.970;22.868;2023-05-21T02:28:23;101390.22;;;14.76;100.00
63808;BME280;49961;43.970;22.868;2023-05-21T02:29:23;101388.19;;;14.76;100.00
63808;BME280;49961;43.970;22.868;2023-05-21T02:30:24;101392.22;;;14.75;100.00
63808;BME280;49961;43.970;22.868;2023-05-21T02:31:24;101388.28;;;14.73;100.00
63808;BME280;49961;43.970;22.868;2023-05-21T02:32:24;101408.63;;;14.73;100.00
63808;BME280;49961;43.970;22.868;2023-05-21T02:33:25;101394.22;;;14.75;100.00
63808;BME280;49961;43.970;22.868;2023-05-21T02:34:25;101388.72;;;14.71;100.00
63808;BME280;49961;43.970;22.868;2023-05-21T02:35:26;101396.34;;;14.71;100.00
63808;BME280;49961;43.970;22.868;2023-05-21T02:36:26;101391.63;;;14.68;100.00
63808;BME280;49961;43.970;22.868;2023-05-21T02:37:28;101387.03;;;14.61;100.00
63808;BME280;49961;43.970;22.868;2023-05-21T02:38:28;101397.97;;;14.56;100.00
63808;BME280;49961;43.970;22.868;2023-05-21T02:39:29;101362.03;;;14.29;100.00
63808;BME280;49961;43.970;22.868;2023-05-21T02:40:29;101395.44;;;14.45;100.00
63808;BME280;49961;43.970;22.868;2023-05-21T02:41:29;101389.44;;;14.47;100.00
63808;BME280;49961;43.970;22.868;2023-05-21T02:42:31;101396.56;;;14.48;100.00
63808;BME280;49961;43.970;22.868;2023-05-21T02:43:32;101386.66;;;14.47;100.00
63808;BME280;49961;43.970;22.868;2023-05-21T02:44:32;101387.88;;;14.46;100.00
63808;BME280;49961;43.970;22.868;2023-05-21T02:45:32;101388.66;;;14.46;100.00
63808;BME280;49961;43.970;22.868;2023-05-21T02:46:33;101383.97;;;14.43;100.00
63808;BME280;49961;43.970;22.868;2023-05-21T02:47:33;101381.16;;;14.43;100.00
63808;BME280;49961;43.970;22.868;2023-05-21T02:48:34;101387.19;;;14.42;100.00
63808;BME280;49961;43.970;22.868;2023-05-21T02:49:34;101386.41;;;14.41;100.00
63808;BME280;49961;43.970;22.868;2023-05-21T02:50:35;101385.63;;;14.41;100.00
63808;BME280;49961;43.970;22.868;2023-05-21T02:51:35;101383.97;;;14.43;100.00
63808;BME280;49961;43.970;22.868;2023-05-21T02:52:36;101392.00;;;14.41;100.00
63808;BME280;49961;43.970;22.868;2023-05-21T02:53:36;101262.81;;;13.59;100.00
63808;BME280;49961;43.970;22.868;2023-05-21T02:54:36;101197.31;;;13.22;100.00
63808;BME280;49961;43.970;22.868;2023-05-21T02:55:37;101328.81;;;14.06;100.00
63808;BME280;49961;43.970;22.868;2023-05-21T02:56:37;101392.31;;;14.43;100.00
63808;BME280;49961;43.970;22.868;2023-05-21T02:57:37;101389.97;;;14.42;100.00
63808;BME280;49961;43.970;22.868;2023-05-21T02:58:38;101395.91;;;14.44;100.00
63808;BME280;49961;43.970;22.868;2023-05-21T02:59:38;101391.00;;;14.48;100.00
63808;BME280;49961;43.970;22.868;2023-05-21T03:00:39;101391.00;;;14.48;100.00
63808;BME280;49961;43.970;22.868;2023-05-21T03:01:39;101391.34;;;14.50;100.00
63808;BME280;49961;43.970;22.868;2023-05-21T03:02:41;101391.69;;;14.52;100.00
63808;BME280;49961;43.970;22.868;2023-05-21T03:03:41;101262.50;;;13.69;100.00
63808;BME280;49961;43.970;22.868;2023-05-21T03:04:42;101395.94;;;14.56;100.00
63808;BME280;49961;43.970;22.868;2023-05-21T03:05:45;101400.63;;;14.59;100.00
63808;BME280;49961;43.970;22.868;2023-05-21T03:06:46;101311.84;;;13.85;100.00
63808;BME280;49961;43.970;22.868;2023-05-21T03:07:46;101399.41;;;14.60;100.00
63808;BME280;49961;43.970;22.868;2023-05-21T03:08:47;101390.28;;;14.60;100.00
63808;BME280;49961;43.970;22.868;2023-05-21T03:09:47;101399.84;;;14.59;100.00
63808;BME280;49961;43.970;22.868;2023-05-21T03:10:48;101395.06;;;14.59;100.00
63808;BME280;49961;43.970;22.868;2023-05-21T03:11:49;101396.63;;;14.60;100.00
63808;BME280;49961;43.970;22.868;2023-05-21T03:12:49;101398.19;;;14.61;100.00
63808;BME280;49961;43.970;22.868;2023-05-21T03:13:50;101400.53;;;14.63;100.00
63808;BME280;49961;43.970;22.868;2023-05-21T03:14:50;101406.66;;;14.58;100.00
63808;BME280;49961;43.970;22.868;2023-05-21T03:15:51;101325.56;;;14.08;100.00
63808;BME280;49961;43.970;22.868;2023-05-21T03:16:55;101396.03;;;14.53;100.00
63808;BME280;49961;43.970;22.868;2023-05-21T03:17:55;101303.06;;;13.86;100.00
63808;BME280;49961;43.970;22.868;2023-05-21T03:18:56;101402.25;;;14.44;100.00
63808;BME280;49961;43.970;22.868;2023-05-21T03:19:56;101399.22;;;14.39;100.00
63808;BME280;49961;43.970;22.868;2023-05-21T03:20:57;101393.66;;;14.39;100.00
63808;BME280;49961;43.970;22.868;2023-05-21T03:21:58;101396.78;;;14.41;100.00
63808;BME280;49961;43.970;22.868;2023-05-21T03:22:58;101394.41;;;14.39;100.00
63808;BME280;49961;43.970;22.868;2023-05-21T03:23:59;101392.44;;;14.40;100.00
63808;BME280;49961;43.970;22.868;2023-05-21T03:25:01;101389.22;;;14.41;100.00
63808;BME280;49961;43.970;22.868;2023-05-21T03:26:01;101385.19;;;14.42;100.00
63808;BME280;49961;43.970;22.868;2023-05-21T03:27:02;101263.13;;;13.61;100.00
63808;BME280;49961;43.970;22.868;2023-05-21T03:28:04;101388.75;;;14.43;100.00
63808;BME280;49961;43.970;22.868;2023-05-21T03:29:05;101391.53;;;14.43;100.00
63808;BME280;49961;43.970;22.868;2023-05-21T03:30:06;101319.75;;;14.02;100.00
63808;BME280;49961;43.970;22.868;2023-05-21T03:31:07;101384.66;;;14.47;100.00
63808;BME280;49961;43.970;22.868;2023-05-21T03:32:07;101389.34;;;14.50;100.00
63808;BME280;49961;43.970;22.868;2023-05-21T03:33:08;101392.47;;;14.52;100.00
63808;BME280;49961;43.970;22.868;2023-05-21T03:34:08;101387.66;;;14.53;100.00
63808;BME280;49961;43.970;22.868;2023-05-21T03:35:08;101391.25;;;14.53;100.00
63808;BME280;49961;43.970;22.868;2023-05-21T03:36:09;101396.41;;;14.55;100.00
63808;BME280;49961;43.970;22.868;2023-05-21T03:37:09;101388.47;;;14.53;100.00
63808;BME280;49961;43.970;22.868;2023-05-21T03:38:10;101394.16;;;14.50;100.00
63808;BME280;49961;43.970;22.868;2023-05-21T03:39:10;101394.47;;;14.52;100.00
63808;BME280;49961;43.970;22.868;2023-05-21T03:40:11;101392.88;;;14.38;100.00
63808;BME280;49961;43.970;22.868;2023-05-21T03:41:12;101398.34;;;14.42;100.00
63808;BME280;49961;43.970;22.868;2023-05-21T03:42:12;101395.44;;;14.45;100.00
63808;BME280;49961;43.970;22.868;2023-05-21T03:43:13;101402.16;;;14.48;100.00
63808;BME280;49961;43.970;22.868;2023-05-21T03:44:13;101399.47;;;14.44;100.00
63808;BME280;49961;43.970;22.868;2023-05-21T03:45:15;101399.91;;;14.43;100.00
63808;BME280;49961;43.970;22.868;2023-05-21T03:46:15;101397.03;;;14.46;100.00
63808;BME280;49961;43.970;22.868;2023-05-21T03:47:16;101398.94;;;14.49;100.00
63808;BME280;49961;43.970;22.868;2023-05-21T03:48:16;101319.41;;;14.00;100.00
63808;BME280;49961;43.970;22.868;2023-05-21T03:49:17;101400.50;;;14.50;100.00
63808;BME280;49961;43.970;22.868;2023-05-21T03:50:17;101401.19;;;14.54;100.00
63808;BME280;49961;43.970;22.868;2023-05-21T03:51:18;101248.09;;;13.58;100.00
63808;BME280;49961;43.970;22.868;2023-05-21T03:52:19;101401.06;;;14.58;100.00
63808;BME280;49961;43.970;22.868;2023-05-21T03:53:20;101337.66;;;14.17;100.00
63808;BME280;49961;43.970;22.868;2023-05-21T03:54:20;101398.38;;;14.54;100.00
63808;BME280;49961;43.970;22.868;2023-05-21T03:55:21;101397.53;;;14.57;100.00
63808;BME280;49961;43.970;22.868;2023-05-21T03:56:21;101402.63;;;14.59;100.00
63808;BME280;49961;43.970;22.868;2023-05-21T03:57:22;101402.19;;;14.60;100.00
63808;BME280;49961;43.970;22.868;2023-05-21T03:58:23;101379.19;;;14.44;100.00
63808;BME280;49961;43.970;22.868;2023-05-21T03:59:23;101354.22;;;14.24;100.00
63808;BME280;49961;43.970;22.868;2023-05-21T04:00:24;101408.47;;;14.64;100.00
63808;BME280;49961;43.970;22.868;2023-05-21T04:01:24;101403.47;;;14.72;100.00
63808;BME280;49961;43.970;22.868;2023-05-21T04:02:25;101398.59;;;14.76;100.00
63808;BME280;49961;43.970;22.868;2023-05-21T04:03:26;101404.50;;;14.78;100.00
63808;BME280;49961;43.970;22.868;2023-05-21T04:04:26;101404.84;;;14.80;100.00
63808;BME280;49961;43.970;22.868;2023-05-21T04:05:28;101388.66;;;14.75;100.00
63808;BME280;49961;43.970;22.868;2023-05-21T04:06:29;101414.56;;;14.88;100.00
63808;BME280;49961;43.970;22.868;2023-05-21T04:07:29;101405.97;;;14.95;100.00
63808;BME280;49961;43.970;22.868;2023-05-21T04:08:30;101403.09;;;14.98;100.00
63808;BME280;49961;43.970;22.868;2023-05-21T04:09:30;101400.97;;;15.02;100.00
63808;BME280;49961;43.970;22.868;2023-05-21T04:10:31;101411.25;;;15.05;100.00
63808;BME280;49961;43.970;22.868;2023-05-21T04:11:31;101403.44;;;15.13;100.00
63808;BME280;49961;43.970;22.868;2023-05-21T04:12:31;101294.97;;;14.49;100.00
63808;BME280;49961;43.970;22.868;2023-05-21T04:13:32;101327.03;;;14.69;100.00
63808;BME280;49961;43.970;22.868;2023-05-21T04:14:32;101411.06;;;15.25;100.00
63808;BME280;49961;43.970;22.868;2023-05-21T04:15:33;101409.28;;;15.31;100.00
63808;BME280;49961;43.970;22.868;2023-05-21T04:16:34;101407.72;;;15.30;100.00
63808;BME280;49961;43.970;22.868;2023-05-21T04:17:37;101412.44;;;15.33;100.00
63808;BME280;49961;43.970;22.868;2023-05-21T04:18:39;101430.66;;;15.37;100.00
63808;BME280;49961;43.970;22.868;2023-05-21T04:19:43;101404.19;;;15.42;100.00
63808;BME280;49961;43.970;22.868;2023-05-21T04:20:43;101400.59;;;15.41;100.00
63808;BME280;49961;43.970;22.868;2023-05-21T04:21:44;101385.41;;;15.42;100.00
63808;BME280;49961;43.970;22.868;2023-05-21T04:22:45;101402.03;;;15.58;100.00
63808;BME280;49961;43.970;22.868;2023-05-21T04:23:45;101407.41;;;15.65;100.00
63808;BME280;49961;43.970;22.868;2023-05-21T04:24:45;101407.31;;;15.69;100.00
63808;BME280;49961;43.970;22.868;2023-05-21T04:25:46;101403.81;;;15.77;100.00
63808;BME280;49961;43.970;22.868;2023-05-21T04:26:49;101429.53;;;15.85;100.00
63808;BME280;49961;43.970;22.868;2023-05-21T04:27:50;101379.13;;;15.76;100.00
63808;BME280;49961;43.970;22.868;2023-05-21T04:28:50;101398.09;;;15.93;100.00
63808;BME280;49961;43.970;22.868;2023-05-21T04:29:53;101410.50;;;16.05;100.00
63808;BME280;49961;43.970;22.868;2023-05-21T04:30:53;101410.25;;;16.12;100.00
63808;BME280;49961;43.970;22.868;2023-05-21T04:31:56;101403.31;;;16.16;100.00
63808;BME280;49961;43.970;22.868;2023-05-21T04:32:57;101400.97;;;16.15;100.00
63808;BME280;49961;43.970;22.868;2023-05-21T04:33:59;101346.25;;;15.80;100.00
63808;BME280;49961;43.970;22.868;2023-05-21T04:34:59;101394.91;;;16.16;100.00
63808;BME280;49961;43.970;22.868;2023-05-21T04:36:00;101346.38;;;15.76;100.00
63808;BME280;49961;43.970;22.868;2023-05-21T04:37:01;101393.78;;;16.26;100.00
63808;BME280;49961;43.970;22.868;2023-05-21T04:38:01;101396.88;;;16.28;100.00
63808;BME280;49961;43.970;22.868;2023-05-21T04:39:04;101396.00;;;16.31;100.00
63808;BME280;49961;43.970;22.868;2023-05-21T04:40:09;101398.66;;;16.35;100.00
63808;BME280;49961;43.970;22.868;2023-05-21T04:41:09;101327.34;;;15.84;100.00
63808;BME280;49961;43.970;22.868;2023-05-21T04:42:10;101401.78;;;16.37;100.00
63808;BME280;49961;43.970;22.868;2023-05-21T04:43:10;101401.66;;;16.40;100.00
63808;BME280;49961;43.970;22.868;2023-05-21T04:44:10;101397.09;;;16.47;100.00
63808;BME280;49961;43.970;22.868;2023-05-21T04:45:13;101393.50;;;16.46;100.00
63808;BME280;49961;43.970;22.868;2023-05-21T04:46:14;101398.13;;;16.40;100.00
63808;BME280;49961;43.970;22.868;2023-05-21T04:47:18;101399.88;;;16.47;100.00
63808;BME280;49961;43.970;22.868;2023-05-21T04:48:18;101402.09;;;16.52;100.00
63808;BME280;49961;43.970;22.868;2023-05-21T04:49:19;101398.63;;;16.48;100.00
63808;BME280;49961;43.970;22.868;2023-05-21T04:50:22;101399.81;;;16.59;100.00
63808;BME280;49961;43.970;22.868;2023-05-21T04:51:23;101408.53;;;16.61;100.00
63808;BME280;49961;43.970;22.868;2023-05-21T04:52:26;101400.81;;;16.65;100.00
63808;BME280;49961;43.970;22.868;2023-05-21T04:53:27;101388.63;;;16.59;100.00
63808;BME280;49961;43.970;22.868;2023-05-21T04:54:28;101397.06;;;16.68;100.00
63808;BME280;49961;43.970;22.868;2023-05-21T04:55:28;101400.97;;;16.70;100.00
63808;BME280;49961;43.970;22.868;2023-05-21T04:56:29;101391.34;;;16.71;100.00
63808;BME280;49961;43.970;22.868;2023-05-21T04:57:29;101395.72;;;16.73;100.00
63808;BME280;49961;43.970;22.868;2023-05-21T04:58:29;101396.50;;;16.73;100.00
63808;BME280;49961;43.970;22.868;2023-05-21T04:59:32;101328.19;;;16.27;100.00
63808;BME280;49961;43.970;22.868;2023-05-21T05:00:33;101394.94;;;16.72;100.00
63808;BME280;49961;43.970;22.868;2023-05-21T05:01:33;101395.72;;;16.73;100.00
63808;BME280;49961;43.970;22.868;2023-05-21T05:02:34;101249.66;;;15.79;100.00
63808;BME280;49961;43.970;22.868;2023-05-21T05:03:34;101380.81;;;16.75;100.00
63808;BME280;49961;43.970;22.868;2023-05-21T05:04:35;101324.69;;;16.36;100.00
63808;BME280;49961;43.970;22.868;2023-05-21T05:05:35;101394.56;;;16.83;100.00
63808;BME280;49961;43.970;22.868;2023-05-21T05:06:36;101396.41;;;16.85;100.00
63808;BME280;49961;43.970;22.868;2023-05-21T05:07:36;101401.13;;;16.88;100.00
63808;BME280;49961;43.970;22.868;2023-05-21T05:08:37;101393.81;;;16.91;100.00
63808;BME280;49961;43.970;22.868;2023-05-21T05:09:37;101400.41;;;16.97;100.00
63808;BME280;49961;43.970;22.868;2023-05-21T05:10:38;101401.81;;;17.01;100.00
63808;BME280;49961;43.970;22.868;2023-05-21T05:11:38;101400.44;;;17.06;100.00
63808;BME280;49961;43.970;22.868;2023-05-21T05:12:39;101402.78;;;17.07;100.00
63808;BME280;49961;43.970;22.868;2023-05-21T05:13:39;101403.88;;;17.10;100.00
63808;BME280;49961;43.970;22.868;2023-05-21T05:14:40;101405.31;;;17.14;100.00